createdAt,value
2022-08-17T00:01:29.131Z,50.1
2022-08-17T00:03:12.530Z,50.1
2022-08-17T00:04:55.924Z,50.1
2022-08-17T00:06:39.326Z,50.1
2022-08-17T00:08:22.712Z,50.1
2022-08-17T00:10:06.121Z,50.1
2022-08-17T00:11:49.501Z,50.1
2022-08-17T00:13:32.903Z,50.1
2022-08-17T00:15:16.609Z,50.1
2022-08-17T00:16:59.997Z,50.1
2022-08-17T00:18:43.396Z,50
2022-08-17T00:20:26.786Z,50
2022-08-17T00:22:10.204Z,50
2022-08-17T00:23:53.581Z,50
2022-08-17T00:25:36.999Z,50
2022-08-17T00:30:46.221Z,50.1
2022-08-17T00:32:29.625Z,50.1
2022-08-17T00:34:13.016Z,50.1
2022-08-17T00:35:56.420Z,50.1
2022-08-17T00:37:39.811Z,50.1
2022-08-17T00:39:23.210Z,50.1
2022-08-17T00:41:06.593Z,50.1
2022-08-17T00:44:33.073Z,50.1
2022-08-17T00:46:16.476Z,50.1
2022-08-17T00:47:59.864Z,50.1
2022-08-17T00:49:43.270Z,50.1
2022-08-17T00:51:26.655Z,50.1
2022-08-17T00:53:10.049Z,50
2022-08-17T00:54:53.448Z,50
2022-08-17T00:58:19.925Z,50
2022-08-17T01:00:03.328Z,50
2022-08-17T01:01:46.711Z,50
2022-08-17T01:03:30.116Z,50
2022-08-17T01:05:13.518Z,50
2022-08-17T01:06:56.902Z,50
2022-08-17T01:08:40.303Z,49.9
2022-08-17T01:12:06.782Z,49.9
2022-08-17T01:13:50.165Z,49.9
2022-08-17T01:15:33.572Z,49.9
2022-08-17T01:17:16.965Z,49.9
2022-08-17T01:19:00.355Z,49.8
2022-08-17T01:20:43.767Z,49.8
2022-08-17T01:22:27.140Z,49.8
2022-08-17T01:25:53.636Z,49.8
2022-08-17T01:27:37.014Z,49.8
2022-08-17T01:29:20.422Z,49.8
2022-08-17T01:31:03.813Z,49.8
2022-08-17T01:32:47.227Z,49.8
2022-08-17T01:34:30.611Z,49.8
2022-08-17T01:36:13.998Z,49.8
2022-08-17T01:37:57.423Z,49.8
2022-08-17T01:39:41.111Z,49.8
2022-08-17T01:41:24.513Z,49.8
2022-08-17T01:43:07.901Z,49.8
2022-08-17T01:44:51.293Z,49.8
2022-08-17T01:46:34.703Z,49.8
2022-08-17T01:48:18.096Z,49.8
2022-08-17T01:50:01.494Z,49.8
2022-08-17T01:55:10.729Z,49.8
2022-08-17T01:56:54.123Z,49.8
2022-08-17T01:58:37.521Z,49.8
2022-08-17T02:00:20.904Z,49.8
2022-08-17T02:02:04.338Z,49.8
2022-08-17T02:03:47.699Z,49.7
2022-08-17T02:05:31.107Z,49.7
2022-08-17T02:07:14.502Z,49.7
2022-08-17T02:08:58.196Z,49.7
2022-08-17T02:10:41.619Z,49.7
2022-08-17T02:12:24.989Z,49.7
2022-08-17T02:14:08.391Z,49.7
2022-08-17T02:15:51.799Z,49.7
2022-08-17T02:17:35.196Z,49.7
2022-08-17T02:19:18.589Z,49.7
2022-08-17T02:21:01.980Z,49.7
2022-08-17T02:24:28.457Z,49.6
2022-08-17T02:26:11.857Z,49.6
2022-08-17T02:27:55.249Z,49.6
2022-08-17T02:29:38.656Z,49.6
2022-08-17T02:31:22.038Z,49.6
2022-08-17T02:33:05.443Z,49.6
2022-08-17T02:34:48.836Z,49.5
2022-08-17T02:36:32.217Z,49.5
2022-08-17T02:38:15.936Z,49.5
2022-08-17T02:39:59.342Z,49.5
2022-08-17T02:41:42.715Z,49.5
2022-08-17T02:43:26.110Z,49.5
2022-08-17T02:45:09.524Z,49.5
2022-08-17T02:46:52.909Z,49.5
2022-08-17T02:48:36.313Z,49.5
2022-08-17T02:50:19.743Z,49.5
2022-08-17T02:53:46.179Z,49.5
2022-08-17T02:55:29.583Z,49.5
2022-08-17T02:57:12.977Z,49.5
2022-08-17T02:58:56.359Z,49.5
2022-08-17T03:00:39.759Z,49.5
2022-08-17T03:02:23.180Z,49.5
2022-08-17T03:04:06.556Z,49.5
2022-08-17T03:09:15.807Z,49.5
2022-08-17T03:10:59.207Z,49.5
2022-08-17T03:12:42.650Z,49.5
2022-08-17T03:14:25.994Z,49.5
2022-08-17T03:16:09.385Z,49.5
2022-08-17T03:17:52.790Z,49.5
2022-08-17T03:19:36.195Z,49.5
2022-08-17T03:21:19.590Z,49.5
2022-08-17T03:23:03.299Z,49.5
2022-08-17T03:24:46.689Z,49.5
2022-08-17T03:26:30.073Z,49.5
2022-08-17T03:28:13.472Z,49.5
2022-08-17T03:29:56.879Z,49.5
2022-08-17T03:31:40.265Z,49.5
2022-08-17T03:33:23.671Z,49.5
2022-08-17T03:35:07.070Z,49.5
2022-08-17T03:38:33.530Z,49.5
2022-08-17T03:40:16.929Z,49.5
2022-08-17T03:42:00.327Z,49.5
2022-08-17T03:43:43.730Z,49.5
2022-08-17T03:45:27.123Z,49.5
2022-08-17T03:47:10.527Z,49.5
2022-08-17T03:48:53.916Z,49.5
2022-08-17T03:54:03.144Z,49.4
2022-08-17T03:55:46.544Z,49.5
2022-08-17T03:57:29.939Z,49.5
2022-08-17T03:59:13.341Z,49.4
2022-08-17T04:00:56.732Z,49.5
2022-08-17T04:02:40.134Z,49.5
2022-08-17T04:04:23.531Z,49.5
2022-08-17T04:07:50.001Z,49.5
2022-08-17T04:09:33.394Z,49.5
2022-08-17T04:11:16.799Z,49.5
2022-08-17T04:13:00.191Z,49.5
2022-08-17T04:14:43.592Z,49.5
2022-08-17T04:16:26.991Z,49.5
2022-08-17T04:18:10.415Z,49.5
2022-08-17T04:19:53.779Z,49.5
2022-08-17T04:23:20.255Z,49.5
2022-08-17T04:25:03.660Z,49.5
2022-08-17T04:26:47.046Z,49.5
2022-08-17T04:28:30.450Z,49.5
2022-08-17T04:30:13.835Z,49.5
2022-08-17T04:31:57.235Z,49.5
2022-08-17T04:33:40.632Z,49.5
2022-08-17T04:37:07.117Z,49.5
2022-08-17T04:38:50.520Z,49.4
2022-08-17T04:40:33.900Z,49.4
2022-08-17T04:42:17.302Z,49.4
2022-08-17T04:44:00.693Z,49.4
2022-08-17T04:45:44.094Z,49.4
2022-08-17T04:47:27.492Z,49.4
2022-08-17T04:49:10.895Z,49.4
2022-08-17T04:50:54.602Z,49.4
2022-08-17T04:52:37.991Z,49.4
2022-08-17T04:54:21.376Z,49.5
2022-08-17T04:56:04.778Z,49.5
2022-08-17T04:57:48.178Z,49.5
2022-08-17T04:59:31.583Z,49.4
2022-08-17T05:01:14.961Z,49.5
2022-08-17T05:02:58.361Z,49.5
2022-08-17T05:04:42.065Z,49.5
2022-08-17T05:06:25.476Z,49.5
2022-08-17T05:08:08.861Z,49.6
2022-08-17T05:09:52.252Z,49.6
2022-08-17T05:11:35.676Z,49.6
2022-08-17T05:13:19.045Z,49.6
2022-08-17T05:15:02.452Z,49.6
2022-08-17T05:16:45.832Z,49.6
2022-08-17T05:20:12.315Z,49.6
2022-08-17T05:21:55.712Z,49.7
2022-08-17T05:23:39.109Z,49.7
2022-08-17T05:25:22.516Z,49.7
2022-08-17T05:27:05.914Z,49.8
2022-08-17T05:28:49.290Z,49.8
2022-08-17T05:30:32.692Z,49.8
2022-08-17T05:35:41.926Z,49.8
2022-08-17T05:37:25.347Z,49.8
2022-08-17T05:39:08.728Z,49.9
2022-08-17T05:40:52.135Z,49.8
2022-08-17T05:42:35.529Z,49.9
2022-08-17T05:44:18.922Z,49.8
2022-08-17T05:46:02.320Z,49.8
2022-08-17T05:47:45.702Z,49.8
2022-08-17T05:49:29.427Z,49.8
2022-08-17T05:51:12.810Z,49.9
2022-08-17T05:52:56.213Z,49.9
2022-08-17T05:54:39.604Z,49.9
2022-08-17T05:56:23.006Z,49.8
2022-08-17T05:58:06.415Z,49.8
2022-08-17T05:59:49.806Z,49.9
2022-08-17T06:01:33.206Z,49.9
2022-08-17T06:04:59.670Z,49.9
2022-08-17T06:06:43.074Z,49.9
2022-08-17T06:08:26.451Z,50
2022-08-17T06:10:09.862Z,50.1
2022-08-17T06:11:53.258Z,50.2
2022-08-17T06:13:36.649Z,50.3
2022-08-17T06:15:20.051Z,50.6
2022-08-17T06:17:03.452Z,50.5
2022-08-17T06:20:29.919Z,50.9
2022-08-17T06:22:13.304Z,51
2022-08-17T06:23:56.710Z,51.1
2022-08-17T06:25:40.107Z,51.1
2022-08-17T06:27:23.494Z,51.2
2022-08-17T06:29:06.900Z,51.2
2022-08-17T06:30:50.295Z,51.2
2022-08-17T06:32:33.683Z,51.3
2022-08-17T06:34:17.436Z,51.3
2022-08-17T06:36:00.792Z,51.3
2022-08-17T06:37:44.192Z,51.2
2022-08-17T06:39:27.595Z,51.1
2022-08-17T06:41:10.987Z,51.1
2022-08-17T06:42:54.395Z,51.2
2022-08-17T06:44:37.778Z,51
2022-08-17T06:46:21.189Z,51.1
2022-08-17T06:48:04.874Z,51
2022-08-17T06:49:48.285Z,51
2022-08-17T06:51:31.671Z,50.9
2022-08-17T06:53:15.063Z,51
2022-08-17T06:54:58.464Z,50.9
2022-08-17T06:56:41.864Z,50.9
2022-08-17T06:58:25.266Z,50.9
2022-08-17T07:00:08.673Z,50.9
2022-08-17T07:03:35.130Z,51
2022-08-17T07:05:18.593Z,51
2022-08-17T07:07:01.933Z,51
2022-08-17T07:08:45.323Z,51
2022-08-17T07:10:28.714Z,51.1
2022-08-17T07:12:12.115Z,51
2022-08-17T07:13:55.497Z,51
2022-08-17T07:19:04.753Z,50.9
2022-08-17T07:20:48.147Z,50.9
2022-08-17T07:22:31.533Z,50.8
2022-08-17T07:24:14.937Z,50.8
2022-08-17T07:25:58.332Z,50.8
2022-08-17T07:27:41.731Z,50.8
2022-08-17T07:29:25.130Z,50.8
2022-08-17T07:32:51.595Z,50.8
2022-08-17T07:34:35.003Z,50.7
2022-08-17T07:36:18.394Z,50.7
2022-08-17T07:38:01.786Z,50.7
2022-08-17T07:39:45.173Z,50.7
2022-08-17T07:41:28.593Z,50.8
2022-08-17T07:43:11.973Z,50.9
2022-08-17T07:48:21.231Z,51.5
2022-08-17T07:50:04.622Z,51.5
2022-08-17T07:51:48.036Z,51.7
2022-08-17T07:53:31.416Z,51.7
2022-08-17T07:55:14.810Z,51.7
2022-08-17T07:56:58.226Z,52
2022-08-17T07:58:41.591Z,52.1
2022-08-17T08:00:24.995Z,52.2
2022-08-17T08:03:51.475Z,52.6
2022-08-17T08:05:34.866Z,53.2
2022-08-17T08:07:18.261Z,53.4
2022-08-17T08:09:01.647Z,53.4
2022-08-17T08:10:45.056Z,53.4
2022-08-17T08:12:28.454Z,53.3
2022-08-17T08:14:11.848Z,53.2
2022-08-17T08:17:38.329Z,52.8
2022-08-17T08:19:21.720Z,52.9
2022-08-17T08:21:05.101Z,53.4
2022-08-17T08:22:48.501Z,53.6
2022-08-17T08:24:31.891Z,54
2022-08-17T08:26:15.312Z,54.3
2022-08-17T08:34:52.589Z,54.8
2022-08-17T08:36:36.012Z,54.9
2022-08-17T08:38:19.414Z,54.7
2022-08-17T08:40:02.782Z,54.6
2022-08-17T08:41:46.188Z,54.6
2022-08-17T08:43:29.586Z,54.4
2022-08-17T08:45:13.271Z,54.3
2022-08-17T08:46:56.681Z,54.2
2022-08-17T08:48:40.086Z,54
2022-08-17T08:50:23.466Z,53.9
2022-08-17T08:52:06.886Z,53.9
2022-08-17T08:53:50.254Z,53.9
2022-08-17T08:55:33.660Z,53.8
2022-08-17T08:57:17.064Z,53.7
2022-08-17T08:59:00.760Z,53.6
2022-08-17T09:00:44.152Z,53.7
2022-08-17T09:02:27.556Z,53.6
2022-08-17T09:04:10.937Z,53.6
2022-08-17T09:05:54.338Z,53.6
2022-08-17T09:07:37.735Z,53.5
2022-08-17T09:09:21.139Z,53.5
2022-08-17T09:11:04.543Z,53.5
2022-08-17T09:12:48.257Z,53.5
2022-08-17T09:14:31.627Z,53.5
2022-08-17T09:16:15.029Z,53.5
2022-08-17T09:17:58.437Z,53.5
2022-08-17T09:19:41.828Z,53.4
2022-08-17T09:21:25.231Z,53.5
2022-08-17T09:23:08.654Z,53.5
2022-08-17T09:24:52.007Z,53.5
2022-08-17T09:26:35.710Z,53.4
2022-08-17T09:28:19.128Z,53.4
2022-08-17T09:30:02.516Z,53.3
2022-08-17T09:31:45.907Z,53.2
2022-08-17T09:33:29.308Z,53.1
2022-08-17T09:35:12.719Z,53.1
2022-08-17T09:36:56.104Z,53.1
2022-08-17T09:38:39.498Z,53.2
2022-08-17T09:40:23.209Z,53.2
2022-08-17T09:42:06.589Z,53.2
2022-08-17T09:43:49.991Z,53.3
2022-08-17T09:45:33.397Z,53.1
2022-08-17T09:47:16.798Z,53
2022-08-17T09:49:00.193Z,52.8
2022-08-17T09:50:43.597Z,52.6
2022-08-17T09:52:26.999Z,52.7
2022-08-17T09:54:10.687Z,52.7
2022-08-17T09:55:54.077Z,52.5
2022-08-17T09:57:37.482Z,52.3
2022-08-17T09:59:20.884Z,52.5
2022-08-17T10:01:04.271Z,52.5
2022-08-17T10:02:47.672Z,52.2
2022-08-17T10:04:31.058Z,52.1
2022-08-17T10:06:14.472Z,52.2
2022-08-17T10:09:40.930Z,52.4
2022-08-17T10:11:24.329Z,52.3
2022-08-17T10:13:07.735Z,52.4
2022-08-17T10:14:51.123Z,52.5
2022-08-17T10:16:34.535Z,52.8
2022-08-17T10:18:17.908Z,52.9
2022-08-17T10:20:01.312Z,52.9
2022-08-17T10:23:27.788Z,53
2022-08-17T10:25:11.203Z,53.2
2022-08-17T10:26:54.584Z,53.3
2022-08-17T10:28:37.989Z,53.4
2022-08-17T10:30:21.384Z,53.4
2022-08-17T10:32:04.774Z,53.4
2022-08-17T10:33:48.173Z,53.5
2022-08-17T10:37:15.266Z,53.4
2022-08-17T10:38:58.659Z,53.4
2022-08-17T10:40:42.068Z,53.5
2022-08-17T10:42:25.454Z,53.4
2022-08-17T10:44:08.849Z,53.4
2022-08-17T10:45:52.239Z,53.4
2022-08-17T10:47:35.637Z,53.3
2022-08-17T10:52:44.896Z,53.4
2022-08-17T10:54:28.300Z,53.2
2022-08-17T10:56:11.684Z,53.2
2022-08-17T10:57:55.087Z,53.2
2022-08-17T10:59:38.495Z,53.3
2022-08-17T11:01:21.891Z,53.2
2022-08-17T11:03:05.268Z,53.1
2022-08-17T11:06:31.755Z,52.9
2022-08-17T11:08:15.155Z,52.7
2022-08-17T11:09:58.530Z,52.7
2022-08-17T11:11:41.934Z,52.7
2022-08-17T11:13:25.331Z,52.7
2022-08-17T11:15:08.764Z,52.8
2022-08-17T11:16:52.126Z,52.7
2022-08-17T11:18:35.539Z,52.7
2022-08-17T11:20:19.249Z,52.7
2022-08-17T11:22:02.618Z,52.7
2022-08-17T11:23:46.041Z,52.7
2022-08-17T11:25:29.419Z,52.6
2022-08-17T11:27:12.811Z,52.7
2022-08-17T11:28:56.242Z,52.8
2022-08-17T11:30:39.621Z,52.8
2022-08-17T11:32:23.004Z,52.8
2022-08-17T11:34:06.708Z,52.8
2022-08-17T11:35:50.105Z,52.7
2022-08-17T11:37:33.515Z,52.8
2022-08-17T11:39:16.909Z,52.7
2022-08-17T11:41:00.303Z,52.8
2022-08-17T11:42:43.710Z,52.7
2022-08-17T11:44:27.116Z,52.6
2022-08-17T11:46:10.485Z,52.7
2022-08-17T11:47:54.208Z,52.7
2022-08-17T11:49:37.601Z,52.7
2022-08-17T11:51:21.091Z,52.7
2022-08-17T11:53:04.455Z,52.6
2022-08-17T11:54:47.773Z,52.4
2022-08-17T11:56:31.172Z,52.6
2022-08-17T11:58:14.627Z,52.6
2022-08-17T12:03:23.830Z,52.4
2022-08-17T12:05:07.215Z,52.1
2022-08-17T12:06:50.619Z,52.2
2022-08-17T12:08:34.012Z,52
2022-08-17T12:10:17.409Z,52
2022-08-17T12:12:00.819Z,52.1
2022-08-17T12:13:44.202Z,52
2022-08-17T12:18:53.443Z,51.7
2022-08-17T12:20:36.838Z,51.8
2022-08-17T12:22:20.289Z,51.6
2022-08-17T12:24:03.641Z,51.5
2022-08-17T12:25:47.038Z,51.6
2022-08-17T12:27:30.441Z,51.5
2022-08-17T12:29:13.845Z,51.4
2022-08-17T12:32:40.312Z,51.4
2022-08-17T12:34:23.700Z,51.2
2022-08-17T12:36:07.097Z,51.3
2022-08-17T12:37:50.515Z,51.2
2022-08-17T12:39:33.898Z,51.2
2022-08-17T12:41:17.279Z,51.1
2022-08-17T12:43:00.687Z,50.9
2022-08-17T12:48:09.928Z,50.7
2022-08-17T12:49:53.558Z,50.7
2022-08-17T12:51:36.739Z,50.6
2022-08-17T12:53:20.116Z,50.5
2022-08-17T12:55:03.524Z,50.5
2022-08-17T12:56:46.918Z,50.5
2022-08-17T12:58:30.315Z,50.2
2022-08-17T13:03:39.545Z,49.9
2022-08-17T13:05:22.952Z,49.8
2022-08-17T13:07:06.365Z,49.8
2022-08-17T13:08:49.762Z,49.9
2022-08-17T13:10:33.136Z,49.8
2022-08-17T13:12:16.534Z,49.8
2022-08-17T13:13:59.950Z,49.7
2022-08-17T13:17:26.403Z,49.4
2022-08-17T13:19:09.810Z,49.5
2022-08-17T13:20:53.198Z,49.4
2022-08-17T13:22:36.608Z,48.9
2022-08-17T13:24:20.011Z,49
2022-08-17T13:26:03.394Z,48.7
2022-08-17T13:27:46.794Z,48.7
2022-08-17T13:31:13.272Z,48.5
2022-08-17T13:32:56.649Z,48.6
2022-08-17T13:34:40.050Z,48.5
2022-08-17T13:36:23.448Z,48.2
2022-08-17T13:38:06.866Z,47.7
2022-08-17T13:39:50.258Z,47.6
2022-08-17T13:41:33.677Z,47.4
2022-08-17T13:45:00.129Z,47.2
2022-08-17T13:46:43.522Z,47.2
2022-08-17T13:48:26.918Z,47.3
2022-08-17T13:50:10.321Z,47.3
2022-08-17T13:51:53.705Z,47.4
2022-08-17T13:53:37.105Z,46.9
2022-08-17T13:55:20.510Z,47.1
2022-08-17T13:58:46.971Z,46.8
2022-08-17T14:00:30.370Z,46.6
2022-08-17T14:02:13.775Z,46.6
2022-08-17T14:03:57.161Z,47.1
2022-08-17T14:05:40.572Z,47
2022-08-17T14:07:24.015Z,47.1
2022-08-17T14:09:07.361Z,47.1
2022-08-17T14:10:51.051Z,46.9
2022-08-17T14:12:34.467Z,46.3
2022-08-17T14:14:17.835Z,45.8
2022-08-17T14:16:01.242Z,45.8
2022-08-17T14:17:44.639Z,45.6
2022-08-17T14:19:28.041Z,45.5
2022-08-17T14:21:11.436Z,45.3
2022-08-17T14:24:37.904Z,45.4
2022-08-17T14:26:21.302Z,45.1
2022-08-17T14:28:04.694Z,45.3
2022-08-17T14:29:48.104Z,45.4
2022-08-17T14:31:31.478Z,45.3
2022-08-17T14:33:14.887Z,45.5
2022-08-17T14:34:58.268Z,45.5
2022-08-17T14:38:24.748Z,45.2
2022-08-17T14:40:08.159Z,45
2022-08-17T14:41:51.545Z,44.9
2022-08-17T14:43:34.939Z,44.6
2022-08-17T14:45:18.328Z,45
2022-08-17T14:47:01.726Z,45
2022-08-17T14:48:45.139Z,45.1
2022-08-17T14:50:28.831Z,44.9
2022-08-17T14:52:12.225Z,44.8
2022-08-17T14:53:55.639Z,44.6
2022-08-17T14:55:39.028Z,44.2
2022-08-17T14:57:22.426Z,44.5
2022-08-17T14:59:05.810Z,44.7
2022-08-17T15:00:49.204Z,44.7
2022-08-17T15:04:15.672Z,44.3
2022-08-17T15:05:59.078Z,44.1
2022-08-17T15:07:42.481Z,43.9
2022-08-17T15:09:25.891Z,44.1
2022-08-17T15:11:09.264Z,43.9
2022-08-17T15:12:52.662Z,43.9
2022-08-17T15:14:36.065Z,44.2
2022-08-17T15:18:02.551Z,44.1
2022-08-17T15:19:45.933Z,44.3
2022-08-17T15:21:29.333Z,44.3
2022-08-17T15:23:12.724Z,44.3
2022-08-17T15:24:56.114Z,44.4
2022-08-17T15:26:39.526Z,44.5
2022-08-17T15:28:22.925Z,44.5
2022-08-17T15:31:49.392Z,44.8
2022-08-17T15:33:32.787Z,44.7
2022-08-17T15:35:16.178Z,44.8
2022-08-17T15:36:59.645Z,44.8
2022-08-17T15:38:43.001Z,44.9
2022-08-17T15:40:26.440Z,44.9
2022-08-17T15:42:09.775Z,44.8
2022-08-17T15:43:53.184Z,44.6
2022-08-17T15:45:36.863Z,44
2022-08-17T15:47:20.265Z,43.9
2022-08-17T15:49:03.670Z,44
2022-08-17T15:50:47.075Z,44
2022-08-17T15:52:30.452Z,44.1
2022-08-17T15:54:13.861Z,44.3
2022-08-17T15:55:57.246Z,44.4
2022-08-17T15:59:23.711Z,44.5
2022-08-17T16:01:07.118Z,44.7
2022-08-17T16:02:50.517Z,44.9
2022-08-17T16:04:33.919Z,44.8
2022-08-17T16:06:17.302Z,44.9
2022-08-17T16:08:00.699Z,45.1
2022-08-17T16:09:44.096Z,45.2
2022-08-17T16:13:10.585Z,45.7
2022-08-17T16:14:53.957Z,45.5
2022-08-17T16:16:37.360Z,45.5
2022-08-17T16:18:20.755Z,45.6
2022-08-17T16:20:04.206Z,45.7
2022-08-17T16:21:47.549Z,46
2022-08-17T16:23:30.932Z,46.1
2022-08-17T16:28:40.186Z,46.6
2022-08-17T16:30:23.592Z,47
2022-08-17T16:32:06.968Z,47.3
2022-08-17T16:33:50.372Z,47.9
2022-08-17T16:35:33.770Z,48
2022-08-17T16:37:17.151Z,48.7
2022-08-17T16:39:00.564Z,48.8
2022-08-17T16:42:27.029Z,48.7
2022-08-17T16:44:10.424Z,48.7
2022-08-17T16:45:53.816Z,49
2022-08-17T16:47:37.221Z,49.2
2022-08-17T16:49:20.629Z,49.1
2022-08-17T16:51:04.007Z,49.2
2022-08-17T16:52:47.443Z,49.5
2022-08-17T16:54:31.119Z,49.6
2022-08-17T16:56:14.492Z,49.6
2022-08-17T16:57:57.909Z,49.8
2022-08-17T16:59:41.829Z,49.9
2022-08-17T17:01:24.701Z,49.8
2022-08-17T17:03:08.121Z,50.1
2022-08-17T17:04:51.481Z,50.1
2022-08-17T17:08:17.954Z,50.5
2022-08-17T17:10:01.350Z,50.6
2022-08-17T17:11:44.751Z,51.1
2022-08-17T17:13:28.160Z,51.5
2022-08-17T17:15:11.543Z,51.6
2022-08-17T17:16:54.982Z,51.9
2022-08-17T17:18:38.350Z,51.8
2022-08-17T17:22:04.806Z,52.2
2022-08-17T17:23:48.212Z,52.6
2022-08-17T17:25:31.628Z,52.7
2022-08-17T17:27:15.002Z,52.6
2022-08-17T17:28:58.392Z,52.7
2022-08-17T17:30:41.797Z,52.6
2022-08-17T17:32:25.208Z,52.6
2022-08-17T17:35:51.670Z,52.7
2022-08-17T17:37:35.066Z,52.6
2022-08-17T17:39:18.458Z,52.4
2022-08-17T17:41:01.862Z,52.3
2022-08-17T17:42:45.250Z,52.1
2022-08-17T17:44:28.654Z,52.2
2022-08-17T17:46:12.063Z,52.1
2022-08-17T17:51:21.284Z,52.2
2022-08-17T17:53:04.696Z,52.3
2022-08-17T17:54:48.085Z,52.4
2022-08-17T17:56:31.483Z,52.5
2022-08-17T17:58:14.869Z,52.6
2022-08-17T17:59:58.266Z,52.6
2022-08-17T18:01:41.676Z,52.6
2022-08-17T18:06:50.921Z,52.5
2022-08-17T18:08:34.319Z,52.4
2022-08-17T18:10:17.704Z,52.4
2022-08-17T18:12:01.113Z,52.4
2022-08-17T18:13:44.506Z,52.2
2022-08-17T18:15:27.897Z,52.1
2022-08-17T18:17:11.297Z,52
2022-08-17T18:22:20.569Z,52
2022-08-17T18:24:03.938Z,52
2022-08-17T18:25:47.328Z,52.1
2022-08-17T18:27:30.729Z,52.1
2022-08-17T18:29:14.125Z,52
2022-08-17T18:30:57.537Z,51.9
2022-08-17T18:32:40.940Z,52
2022-08-17T18:34:24.334Z,52
2022-08-17T18:36:08.028Z,51.9
2022-08-17T18:37:51.435Z,51.9
2022-08-17T18:39:34.813Z,51.9
2022-08-17T18:41:18.206Z,51.8
2022-08-17T18:43:01.599Z,52
2022-08-17T18:44:44.999Z,52
2022-08-17T18:46:28.436Z,52
2022-08-17T18:48:11.797Z,52
2022-08-17T18:51:38.322Z,51.9
2022-08-17T18:53:21.684Z,51.8
2022-08-17T18:55:05.067Z,51.8
2022-08-17T18:56:48.457Z,51.8
2022-08-17T18:58:31.856Z,51.7
2022-08-17T19:00:15.248Z,51.7
2022-08-17T19:01:58.662Z,51.7
2022-08-17T19:05:25.132Z,51.5
2022-08-17T19:07:08.530Z,51.4
2022-08-17T19:08:51.923Z,51.4
2022-08-17T19:10:35.313Z,51.5
2022-08-17T19:12:18.726Z,51.5
2022-08-17T19:14:02.114Z,51.5
2022-08-17T19:15:45.498Z,51.4
2022-08-17T19:20:54.757Z,51.5
2022-08-17T19:22:38.157Z,51.3
2022-08-17T19:24:21.546Z,51.3
2022-08-17T19:26:04.946Z,51.3
2022-08-17T19:27:48.346Z,51.2
2022-08-17T19:29:31.735Z,51.3
2022-08-17T19:31:15.146Z,51.3
2022-08-17T19:34:41.615Z,51.3
2022-08-17T19:36:25.010Z,51.3
2022-08-17T19:38:08.555Z,51.2
2022-08-17T19:39:51.807Z,51.2
2022-08-17T19:41:35.199Z,51.2
2022-08-17T19:43:30.946Z,51.1
2022-08-17T19:45:01.993Z,51.1
2022-08-17T19:50:11.239Z,51.1
2022-08-17T19:51:54.625Z,51
2022-08-17T19:53:38.048Z,51
2022-08-17T19:55:21.408Z,51.1
2022-08-17T19:57:04.808Z,51
2022-08-17T19:58:48.207Z,51
2022-08-17T20:00:31.607Z,51
2022-08-17T20:03:58.086Z,51.1
2022-08-17T20:05:41.481Z,51
2022-08-17T20:07:24.877Z,51.1
2022-08-17T20:09:08.270Z,51.1
2022-08-17T20:10:51.659Z,51.1
2022-08-17T20:12:35.052Z,51.1
2022-08-17T20:14:18.488Z,51.2
2022-08-17T20:17:44.941Z,51.2
2022-08-17T20:19:28.381Z,51.3
2022-08-17T20:21:11.736Z,51.3
2022-08-17T20:22:55.132Z,51.3
2022-08-17T20:24:38.528Z,51.3
2022-08-17T20:26:21.912Z,51.3
2022-08-17T20:28:05.335Z,51.4
2022-08-17T20:33:14.570Z,51.5
2022-08-17T20:34:57.956Z,51.5
2022-08-17T20:36:41.346Z,51.5
2022-08-17T20:38:24.750Z,51.5
2022-08-17T20:40:08.141Z,51.5
2022-08-17T20:41:51.534Z,51.5
2022-08-17T20:43:34.930Z,51.5
2022-08-17T20:48:44.174Z,51.6
2022-08-17T20:50:27.582Z,51.6
2022-08-17T20:52:10.961Z,51.6
2022-08-17T20:53:54.359Z,51.6
2022-08-17T20:55:37.758Z,51.6
2022-08-17T20:57:21.149Z,51.6
2022-08-17T20:59:04.565Z,51.7
2022-08-17T21:04:13.796Z,51.7
2022-08-17T21:05:57.195Z,51.7
2022-08-17T21:07:40.603Z,51.8
2022-08-17T21:09:23.987Z,51.8
2022-08-17T21:11:07.395Z,51.8
2022-08-17T21:12:50.777Z,51.8
2022-08-17T21:14:34.185Z,51.8
2022-08-17T21:19:43.412Z,51.9
2022-08-17T21:21:26.813Z,52
2022-08-17T21:23:10.215Z,52.1
2022-08-17T21:24:53.629Z,52.3
2022-08-17T21:26:37.019Z,52.3
2022-08-17T21:28:20.411Z,52.4
2022-08-17T21:30:03.810Z,52.4
2022-08-17T21:31:47.192Z,52.3
2022-08-17T21:33:30.910Z,52.4
2022-08-17T21:35:14.289Z,52.3
2022-08-17T21:36:57.690Z,52.3
2022-08-17T21:38:41.087Z,52.3
2022-08-17T21:40:24.488Z,52.2
2022-08-17T21:42:07.878Z,52.2
2022-08-17T21:43:51.278Z,52.2
2022-08-17T21:45:34.703Z,52.2
2022-08-17T21:47:18.380Z,52.2
2022-08-17T21:49:01.781Z,52.1
2022-08-17T21:50:45.186Z,52.2
2022-08-17T21:52:28.583Z,52.2
2022-08-17T21:54:11.986Z,52.2
2022-08-17T21:55:55.373Z,52.2
2022-08-17T21:57:38.771Z,52.3
2022-08-17T22:02:48.018Z,52.4
2022-08-17T22:04:31.425Z,52.4
2022-08-17T22:06:14.802Z,52.3
2022-08-17T22:07:58.205Z,52.3
2022-08-17T22:09:41.605Z,52.4
2022-08-17T22:11:24.988Z,52.4
2022-08-17T22:13:08.408Z,52.3
2022-08-17T22:16:34.876Z,52.3
2022-08-17T22:18:18.279Z,52.3
2022-08-17T22:20:01.663Z,52.3
2022-08-17T22:21:45.065Z,52.3
2022-08-17T22:23:28.452Z,52.4
2022-08-17T22:25:11.875Z,52.5
2022-08-17T22:26:55.239Z,52.5
2022-08-17T22:28:38.630Z,52.5
2022-08-17T22:30:22.333Z,52.6
2022-08-17T22:32:05.742Z,52.7
2022-08-17T22:33:49.146Z,52.8
2022-08-17T22:35:32.528Z,52.9
2022-08-17T22:37:15.926Z,53
2022-08-17T22:38:59.332Z,53.1
2022-08-17T22:40:42.721Z,53.2
2022-08-17T22:45:51.968Z,53.3
2022-08-17T22:47:35.362Z,53.5
2022-08-17T22:49:18.754Z,53.6
2022-08-17T22:51:02.151Z,53.8
2022-08-17T22:52:45.551Z,53.9
2022-08-17T22:54:28.945Z,53.9
2022-08-17T22:56:12.350Z,54.2
2022-08-17T23:01:21.581Z,54.8
2022-08-17T23:03:04.980Z,54.8
2022-08-17T23:04:48.385Z,55
2022-08-17T23:06:31.783Z,55
2022-08-17T23:08:15.170Z,55.2
2022-08-17T23:09:58.589Z,55.3
2022-08-17T23:11:41.969Z,55.4
2022-08-17T23:16:51.258Z,55.7
2022-08-17T23:18:34.611Z,55.6
2022-08-17T23:20:17.999Z,55.8
2022-08-17T23:22:01.408Z,56
2022-08-17T23:23:44.803Z,55.9
2022-08-17T23:25:28.195Z,56.3
2022-08-17T23:27:11.577Z,56
2022-08-17T23:30:38.057Z,56.2
2022-08-17T23:32:21.452Z,56.3
2022-08-17T23:34:04.851Z,56.3
2022-08-17T23:35:48.256Z,56.1
2022-08-17T23:37:31.639Z,56.1
2022-08-17T23:39:15.050Z,56
2022-08-17T23:40:58.443Z,55.9
2022-08-17T23:42:41.854Z,55.9
2022-08-17T23:44:25.546Z,55.8
2022-08-17T23:46:08.952Z,55.8
2022-08-17T23:47:52.347Z,55.7
2022-08-17T23:49:35.736Z,55.6
2022-08-17T23:51:19.125Z,55.6
2022-08-17T23:53:02.525Z,55.6
2022-08-17T23:54:45.917Z,55.7
2022-08-17T23:56:29.329Z,55.8
2022-08-17T23:58:13.028Z,55.9
2022-08-17T23:59:56.424Z,55.9
